aviador You're here:

K96D Decoded Metar

in
Report Time2018-07-16 08:15:00
UTC Time2018-07-16 08:26:41
Flight Rules vfr VFR
Wind280° at 07 kt
W.Rank280° ranks 10
Current wind is below 280° avg. (7.8)
Visibility9999 m
Phenomena:N/A
Clouds:N/A
Expected CloudBase > 2,000 ft AGL from Temp-Dew spread
CeilingNone
Temp15°C
Dew Point10°C (72% RH)
AAT12.5°C
QNH1015 hPa
Raw Report
K96D 160815Z AUTO 28007KT 10SM CLR 15/10 A2997 RMK AO2=

Extra information for K96D:More info

Social comments